createdAt,value
2018-04-07T00:02:28.201Z,0.90
2018-04-07T00:04:57.130Z,1.08
2018-04-07T00:07:26.027Z,1.08
2018-04-07T00:09:54.929Z,0.85
2018-04-07T00:12:23.828Z,0.95
2018-04-07T00:14:52.858Z,1.45
2018-04-07T00:17:21.760Z,1.17
2018-04-07T00:19:50.704Z,0.70
2018-04-07T00:22:19.618Z,0.80
2018-04-07T00:24:48.905Z,0.90
2018-04-07T00:27:17.829Z,1.25
2018-04-07T00:29:46.823Z,0.70
2018-04-07T00:32:15.898Z,0.95
2018-04-07T00:34:44.795Z,1.15
2018-04-07T00:37:14.440Z,0.80
2018-04-07T00:39:43.337Z,0.90
2018-04-07T00:42:12.235Z,0.90
2018-04-07T00:44:41.146Z,1.20
2018-04-07T00:47:10.044Z,0.60
2018-04-07T00:49:38.932Z,1.35
2018-04-07T00:52:07.828Z,1.00
2018-04-07T00:54:36.718Z,1.20
2018-04-07T00:57:05.667Z,2.10
2018-04-07T00:59:34.559Z,1.27
2018-04-07T01:02:03.453Z,0.90
2018-04-07T01:04:32.356Z,0.82
2018-04-07T01:07:01.253Z,1.83
2018-04-07T01:09:30.269Z,1.70
2018-04-07T01:11:59.164Z,3.92
2018-04-07T01:14:28.213Z,2.85
2018-04-07T01:16:57.104Z,3.15
2018-04-07T01:19:26.112Z,1.65
2018-04-07T01:21:55.157Z,2.20
2018-04-07T01:24:24.049Z,1.58
2018-04-07T01:26:52.949Z,1.42
2018-04-07T01:29:21.890Z,1.37
2018-04-07T01:31:50.785Z,1.00
2018-04-07T01:34:19.681Z,1.02
2018-04-07T01:36:48.728Z,1.20
2018-04-07T01:39:17.653Z,0.80
2018-04-07T01:41:46.569Z,1.05
2018-04-07T01:44:15.481Z,1.42
2018-04-07T01:46:44.376Z,0.88
2018-04-07T01:49:13.645Z,1.02
2018-04-07T01:51:42.562Z,0.95
2018-04-07T01:54:11.494Z,0.98
2018-04-07T01:56:40.531Z,1.08
2018-04-07T01:59:09.424Z,1.05
2018-04-07T02:01:38.309Z,0.85
2018-04-07T02:04:07.200Z,1.05
2018-04-07T02:06:36.180Z,1.20
2018-04-07T02:09:05.930Z,0.88
2018-04-07T02:11:34.830Z,1.00
2018-04-07T02:14:03.721Z,1.02
2018-04-07T02:16:32.868Z,1.00
2018-04-07T02:19:01.789Z,0.90
2018-04-07T02:21:30.686Z,1.20
2018-04-07T02:23:59.572Z,0.70
2018-04-07T02:26:28.460Z,1.52
2018-04-07T02:28:57.441Z,1.00
2018-04-07T02:31:26.333Z,0.90
2018-04-07T02:33:55.229Z,0.75
2018-04-07T02:36:24.400Z,1.10
2018-04-07T02:38:53.285Z,0.90
2018-04-07T02:41:22.177Z,1.42
2018-04-07T02:43:51.073Z,1.12
2018-04-07T02:46:19.960Z,1.12
2018-04-07T02:48:49.066Z,1.50
2018-04-07T02:51:17.962Z,1.17
2018-04-07T02:53:46.857Z,0.90
2018-04-07T02:56:16.591Z,0.90
2018-04-07T02:58:45.524Z,1.15
2018-04-07T03:01:14.445Z,1.00
2018-04-07T03:03:43.412Z,2.22
2018-04-07T03:06:12.254Z,0.60
2018-04-07T03:08:41.145Z,1.25
2018-04-07T03:11:10.106Z,1.00
2018-04-07T03:13:39.205Z,1.10
2018-04-07T03:16:08.095Z,0.80
2018-04-07T03:18:36.981Z,0.93
2018-04-07T03:21:05.869Z,1.60
2018-04-07T03:23:34.765Z,1.12
2018-04-07T03:26:03.874Z,1.05
2018-04-07T03:28:32.771Z,1.48
2018-04-07T03:31:01.669Z,0.82
2018-04-07T03:33:30.621Z,1.20
2018-04-07T03:35:59.524Z,0.85
2018-04-07T03:38:28.410Z,1.10
2018-04-07T03:40:57.301Z,1.05
2018-04-07T03:43:26.190Z,0.70
2018-04-07T03:45:55.219Z,1.10
2018-04-07T03:48:24.115Z,0.88
2018-04-07T03:50:53.012Z,1.30
2018-04-07T03:53:21.904Z,1.15
2018-04-07T03:55:50.788Z,0.65
2018-04-07T03:58:19.816Z,1.40
2018-04-07T04:00:48.706Z,0.90
2018-04-07T04:03:17.593Z,1.15
2018-04-07T04:05:46.545Z,0.98
2018-04-07T04:08:15.442Z,0.70
2018-04-07T04:10:44.680Z,1.10
2018-04-07T04:13:13.585Z,2.03
2018-04-07T04:15:42.524Z,0.90
2018-04-07T04:18:11.424Z,1.15
2018-04-07T04:20:40.325Z,1.48
2018-04-07T04:23:09.480Z,0.80
2018-04-07T04:25:38.378Z,1.30
2018-04-07T04:28:07.275Z,1.20
2018-04-07T04:30:36.176Z,1.23
2018-04-07T04:33:05.093Z,1.50
2018-04-07T04:35:34.220Z,1.25
2018-04-07T04:38:04.144Z,1.08
2018-04-07T04:40:33.032Z,1.37
2018-04-07T04:43:01.922Z,1.12
2018-04-07T04:45:30.813Z,1.15
2018-04-07T04:47:59.775Z,1.00
2018-04-07T04:50:28.668Z,1.70
2018-04-07T04:52:59.263Z,1.58
2018-04-07T04:55:28.216Z,1.08
2018-04-07T04:57:57.111Z,1.40
2018-04-07T05:00:26.006Z,1.08
2018-04-07T05:02:55.981Z,1.17
2018-04-07T05:05:25.540Z,1.15
2018-04-07T05:07:54.465Z,1.80
2018-04-07T05:10:23.363Z,1.12
2018-04-07T05:12:52.257Z,1.15
2018-04-07T05:15:21.284Z,1.10
2018-04-07T05:17:50.170Z,1.48
2018-04-07T05:20:19.062Z,1.37
2018-04-07T05:22:47.949Z,1.15
2018-04-07T05:25:16.834Z,1.00
2018-04-07T05:27:45.748Z,1.27
2018-04-07T05:30:14.632Z,1.25
2018-04-07T05:32:43.541Z,2.55
2018-04-07T05:35:12.637Z,2.10
2018-04-07T05:37:41.540Z,2.20
2018-04-07T05:40:10.437Z,1.67
2018-04-07T05:42:39.336Z,1.25
2018-04-07T05:45:08.234Z,0.90
2018-04-07T05:47:37.134Z,1.27
2018-04-07T05:50:06.074Z,1.08
2018-04-07T05:52:34.985Z,1.20
2018-04-07T05:55:03.916Z,1.10
2018-04-07T05:57:32.816Z,1.08
2018-04-07T06:00:01.710Z,0.80
2018-04-07T06:02:30.871Z,1.25
2018-04-07T06:04:59.763Z,0.95
2018-04-07T06:07:28.757Z,0.90
2018-04-07T06:09:57.648Z,1.00
2018-04-07T06:12:26.540Z,1.37
2018-04-07T06:14:55.438Z,0.93
2018-04-07T06:17:24.349Z,0.90
2018-04-07T06:19:53.269Z,1.10
2018-04-07T06:22:22.233Z,1.17
2018-04-07T06:24:51.188Z,0.80
2018-04-07T06:27:20.132Z,1.55
2018-04-07T06:29:49.038Z,0.77
2018-04-07T06:32:17.937Z,1.10
2018-04-07T06:34:46.840Z,2.37
2018-04-07T06:37:16.004Z,1.17
2018-04-07T06:39:45.054Z,0.88
2018-04-07T06:42:14.029Z,1.15
2018-04-07T06:44:42.992Z,1.05
2018-04-07T06:47:11.893Z,0.98
2018-04-07T06:49:40.835Z,0.85
2018-04-07T06:52:09.905Z,0.80
2018-04-07T06:54:38.826Z,1.50
2018-04-07T06:57:07.751Z,0.93
2018-04-07T06:59:36.933Z,0.90
2018-04-07T07:02:05.828Z,1.10
2018-04-07T07:04:34.742Z,0.90
2018-04-07T07:07:03.642Z,1.00
2018-04-07T07:09:32.601Z,0.73
2018-04-07T07:12:01.639Z,0.95
2018-04-07T07:14:30.540Z,1.05
2018-04-07T07:16:59.441Z,1.17
2018-04-07T07:19:28.364Z,0.90
2018-04-07T07:21:57.258Z,0.93
2018-04-07T07:24:26.144Z,0.90
2018-04-07T07:26:55.043Z,0.85
2018-04-07T07:29:24.014Z,0.80
2018-04-07T07:31:52.913Z,0.77
2018-04-07T07:34:21.832Z,0.85
2018-04-07T07:36:50.757Z,1.15
2018-04-07T07:39:19.652Z,0.90
2018-04-07T07:41:48.549Z,1.00
2018-04-07T07:44:17.448Z,0.90
2018-04-07T07:46:46.378Z,0.90
2018-04-07T07:49:15.295Z,1.10
2018-04-07T07:51:44.192Z,1.95
2018-04-07T07:54:13.126Z,0.77
2018-04-07T07:56:42.049Z,1.10
2018-04-07T07:59:10.946Z,0.90
2018-04-07T08:01:39.836Z,0.80
2018-04-07T08:04:08.737Z,0.98
2018-04-07T08:06:37.753Z,0.60
2018-04-07T08:09:06.648Z,0.70
2018-04-07T08:11:35.554Z,0.80
2018-04-07T08:14:04.440Z,0.98
2018-04-07T08:16:33.335Z,0.70
2018-04-07T08:19:02.272Z,1.05
2018-04-07T08:21:31.162Z,0.95
2018-04-07T08:24:00.062Z,0.93
2018-04-07T08:26:28.965Z,0.95
2018-04-07T08:28:57.875Z,1.27
2018-04-07T08:31:26.797Z,0.80
2018-04-07T08:33:55.693Z,0.80
2018-04-07T08:36:24.584Z,0.80
2018-04-07T08:38:53.478Z,0.80
2018-04-07T08:41:22.481Z,0.80
2018-04-07T08:43:51.397Z,0.90
2018-04-07T08:46:20.304Z,0.85
2018-04-07T08:48:49.262Z,0.82
2018-04-07T08:51:18.249Z,0.80
2018-04-07T08:53:47.144Z,0.90
2018-04-07T08:56:16.038Z,0.90
2018-04-07T08:58:44.941Z,0.80
2018-04-07T09:01:13.837Z,1.05
2018-04-07T09:03:42.757Z,0.90
2018-04-07T09:06:11.649Z,1.55
2018-04-07T09:08:40.539Z,0.85
2018-04-07T09:11:09.438Z,1.05
2018-04-07T09:13:38.324Z,0.90
2018-04-07T09:16:07.349Z,0.95
2018-04-07T09:18:36.236Z,1.00
2018-04-07T09:21:05.128Z,0.90
2018-04-07T09:23:34.070Z,1.10
2018-04-07T09:26:02.968Z,0.88
2018-04-07T09:28:31.860Z,1.25
2018-04-07T09:31:06.495Z,1.00
2018-04-07T09:33:35.381Z,0.80
2018-04-07T09:36:04.751Z,0.90
2018-04-07T09:38:33.640Z,0.80
2018-04-07T09:41:02.532Z,0.90
2018-04-07T09:43:31.620Z,0.90
2018-04-07T09:46:00.513Z,0.80
2018-04-07T09:48:29.409Z,1.20
2018-04-07T09:50:58.705Z,1.37
2018-04-07T09:53:27.785Z,1.17
2018-04-07T09:55:56.679Z,1.40
2018-04-07T09:58:25.589Z,0.88
2018-04-07T10:00:54.489Z,1.00
2018-04-07T10:03:23.409Z,0.90
2018-04-07T10:05:52.300Z,1.73
2018-04-07T10:08:21.207Z,0.80
2018-04-07T10:10:50.134Z,0.80
2018-04-07T10:13:19.034Z,0.80
2018-04-07T10:15:47.924Z,0.90
2018-04-07T10:18:16.845Z,1.25
2018-04-07T10:20:45.742Z,1.15
2018-04-07T10:23:14.685Z,0.90
2018-04-07T10:25:43.572Z,0.60
2018-04-07T10:28:12.497Z,0.90
2018-04-07T10:30:41.428Z,1.12
2018-04-07T10:33:10.325Z,0.80
2018-04-07T10:35:39.332Z,1.10
2018-04-07T10:38:08.258Z,1.23
2018-04-07T10:40:37.152Z,0.90
2018-04-07T10:43:06.415Z,1.08
2018-04-07T10:45:35.317Z,0.88
2018-04-07T10:48:04.204Z,0.88
2018-04-07T10:50:33.169Z,1.00
2018-04-07T10:53:02.064Z,1.02
2018-04-07T10:55:30.992Z,1.42
2018-04-07T10:58:00.489Z,0.98
2018-04-07T11:00:29.387Z,1.05
2018-04-07T11:02:58.560Z,0.70
2018-04-07T11:05:27.453Z,1.00
2018-04-07T11:07:56.359Z,1.05
2018-04-07T11:10:25.256Z,0.77
2018-04-07T11:12:54.167Z,1.00
2018-04-07T11:15:23.067Z,0.60
2018-04-07T11:17:52.117Z,1.17
2018-04-07T11:20:21.023Z,0.93
2018-04-07T11:22:49.909Z,1.00
2018-04-07T11:25:19.221Z,0.90
2018-04-07T11:27:48.113Z,1.00
2018-04-07T11:30:17.010Z,0.90
2018-04-07T11:32:46.317Z,0.80
2018-04-07T11:35:15.215Z,1.25
2018-04-07T11:37:44.481Z,1.00
2018-04-07T11:40:14.237Z,1.30
2018-04-07T11:42:43.130Z,1.10
2018-04-07T11:45:12.026Z,1.60
2018-04-07T11:47:40.922Z,1.20
2018-04-07T11:50:10.240Z,1.37
2018-04-07T11:52:39.140Z,1.05
2018-04-07T11:55:08.046Z,1.35
2018-04-07T11:57:36.976Z,1.02
2018-04-07T12:00:05.873Z,0.98
2018-04-07T12:02:34.882Z,0.90
2018-04-07T12:05:03.737Z,1.23
2018-04-07T12:07:32.648Z,0.90
2018-04-07T12:10:01.546Z,1.00
2018-04-07T12:12:30.441Z,1.08
2018-04-07T12:14:59.699Z,1.62
2018-04-07T12:17:28.593Z,1.00
2018-04-07T12:19:57.477Z,1.10
2018-04-07T12:22:26.382Z,1.15
2018-04-07T12:24:55.284Z,1.10
2018-04-07T12:27:24.181Z,0.95
2018-04-07T12:29:53.100Z,0.85
2018-04-07T12:32:21.999Z,1.27
2018-04-07T12:34:50.900Z,0.73
2018-04-07T12:37:19.793Z,0.82
2018-04-07T12:39:48.693Z,0.95
2018-04-07T12:42:17.633Z,1.10
2018-04-07T12:44:46.533Z,0.70
2018-04-07T12:47:15.438Z,0.82
2018-04-07T12:49:44.332Z,0.98
2018-04-07T12:52:13.232Z,0.70
2018-04-07T12:54:42.130Z,0.70
2018-04-07T12:57:11.313Z,1.10
2018-04-07T12:59:40.202Z,1.25
2018-04-07T13:02:09.093Z,1.00
2018-04-07T13:04:38.318Z,1.15
2018-04-07T13:07:07.213Z,0.90
2018-04-07T13:09:36.101Z,1.05
2018-04-07T13:12:05.002Z,1.00
2018-04-07T13:14:33.901Z,0.88
2018-04-07T13:17:02.850Z,0.85
2018-04-07T13:19:31.751Z,1.10
2018-04-07T13:22:00.637Z,0.75
2018-04-07T13:24:29.525Z,0.90
2018-04-07T13:26:58.417Z,0.80
2018-04-07T13:29:27.373Z,0.80
2018-04-07T13:31:56.264Z,1.20
2018-04-07T13:34:25.154Z,1.15
2018-04-07T13:36:54.047Z,0.60
2018-04-07T13:39:22.933Z,1.00
2018-04-07T13:41:51.852Z,0.85
2018-04-07T13:44:20.753Z,1.15
2018-04-07T13:46:49.735Z,1.00
2018-04-07T13:49:18.748Z,1.12
2018-04-07T13:51:47.669Z,1.10
2018-04-07T13:54:16.956Z,0.90
2018-04-07T13:56:45.845Z,1.15
2018-04-07T13:59:14.741Z,1.23
2018-04-07T14:01:43.642Z,0.95
2018-04-07T14:04:12.524Z,1.08
2018-04-07T14:06:41.445Z,1.00
2018-04-07T14:09:10.356Z,1.17
2018-04-07T14:11:39.245Z,1.00
2018-04-07T14:14:08.271Z,1.05
2018-04-07T14:16:37.164Z,1.20
2018-04-07T14:19:06.053Z,1.30
2018-04-07T14:21:34.936Z,1.20
2018-04-07T14:24:03.841Z,1.62
2018-04-07T14:26:32.737Z,0.68
2018-04-07T14:29:01.637Z,1.20
2018-04-07T14:31:30.525Z,0.95
2018-04-07T14:33:59.417Z,1.10
2018-04-07T14:36:28.304Z,0.90
2018-04-07T14:38:57.203Z,0.95
2018-04-07T14:41:26.160Z,0.82
2018-04-07T14:43:55.051Z,0.90
2018-04-07T14:46:24.000Z,1.00
2018-04-07T14:48:52.912Z,1.00
2018-04-07T14:51:21.922Z,1.45
2018-04-07T14:53:50.877Z,0.85
2018-04-07T14:56:19.769Z,0.75
2018-04-07T14:58:48.680Z,1.00
2018-04-07T15:01:17.781Z,0.90
2018-04-07T15:03:46.683Z,1.17
2018-04-07T15:06:15.585Z,1.25
2018-04-07T15:08:44.484Z,1.05
2018-04-07T15:11:13.377Z,1.00
2018-04-07T15:13:42.401Z,1.40
2018-04-07T15:16:11.296Z,1.20
2018-04-07T15:18:40.190Z,0.80
2018-04-07T15:21:09.237Z,1.23
2018-04-07T15:23:38.136Z,0.75
2018-04-07T15:26:07.032Z,0.70
2018-04-07T15:28:36.024Z,1.50
2018-04-07T15:31:04.928Z,1.15
2018-04-07T15:33:33.847Z,1.50
2018-04-07T15:36:02.744Z,1.00
2018-04-07T15:38:31.638Z,1.00
2018-04-07T15:41:00.737Z,1.10
2018-04-07T15:43:29.626Z,1.12
2018-04-07T15:45:58.523Z,1.00
2018-04-07T15:48:27.420Z,1.15
2018-04-07T15:50:56.313Z,1.10
2018-04-07T15:53:25.245Z,1.30
2018-04-07T15:55:54.150Z,0.80
2018-04-07T15:58:23.044Z,0.90
2018-04-07T16:00:51.936Z,3.42
2018-04-07T16:03:20.830Z,1.00
2018-04-07T16:05:49.868Z,1.00
2018-04-07T16:08:18.756Z,1.45
2018-04-07T16:10:47.646Z,1.62
2018-04-07T16:13:16.538Z,0.90
2018-04-07T16:15:45.442Z,0.82
2018-04-07T16:18:14.392Z,1.83
2018-04-07T16:20:43.309Z,1.20
2018-04-07T16:23:12.206Z,1.10
2018-04-07T16:25:41.124Z,1.17
2018-04-07T16:28:10.013Z,0.90
2018-04-07T16:30:38.966Z,0.93
2018-04-07T16:33:07.868Z,1.00
2018-04-07T16:35:36.764Z,1.20
2018-04-07T16:38:05.669Z,1.10
2018-04-07T16:40:34.623Z,1.23
2018-04-07T16:43:03.524Z,1.05
2018-04-07T16:45:32.421Z,2.12
2018-04-07T16:48:01.563Z,1.92
2018-04-07T16:50:30.637Z,1.20
2018-04-07T16:52:59.534Z,1.00
2018-04-07T16:55:28.470Z,1.00
2018-04-07T16:57:57.369Z,2.22
2018-04-07T17:00:26.268Z,1.20
2018-04-07T17:02:55.162Z,1.33
2018-04-07T17:05:24.054Z,1.27
2018-04-07T17:07:53.170Z,1.60
2018-04-07T17:10:22.081Z,1.50
2018-04-07T17:12:51.042Z,1.35
2018-04-07T17:15:19.939Z,1.50
2018-04-07T17:17:48.834Z,1.87
2018-04-07T17:20:17.777Z,1.42
2018-04-07T17:22:46.793Z,1.60
2018-04-07T17:25:15.692Z,1.35
2018-04-07T17:27:44.582Z,2.90
2018-04-07T17:30:13.481Z,1.02
2018-04-07T17:32:42.372Z,1.40
2018-04-07T17:35:11.505Z,1.40
2018-04-07T17:37:40.396Z,1.87
2018-04-07T17:40:09.288Z,1.17
2018-04-07T17:42:38.188Z,1.30
2018-04-07T17:45:07.080Z,2.15
2018-04-07T17:47:36.021Z,1.30
2018-04-07T17:50:04.929Z,1.67
2018-04-07T17:52:33.829Z,2.15
2018-04-07T17:55:02.730Z,1.35
2018-04-07T17:57:31.765Z,1.17
2018-04-07T18:00:00.668Z,1.90
2018-04-07T18:02:29.560Z,1.65
2018-04-07T18:04:58.454Z,1.27
2018-04-07T18:07:27.477Z,1.12
2018-04-07T18:09:56.428Z,2.10
2018-04-07T18:12:25.320Z,1.27
2018-04-07T18:14:54.208Z,2.25
2018-04-07T18:17:23.092Z,1.58
2018-04-07T18:19:51.992Z,1.20
2018-04-07T18:22:20.940Z,1.62
2018-04-07T18:24:49.938Z,1.60
2018-04-07T18:27:19.072Z,1.90
2018-04-07T18:29:47.960Z,1.45
2018-04-07T18:32:16.885Z,2.10
2018-04-07T18:34:45.949Z,1.87
2018-04-07T18:37:14.870Z,1.10
2018-04-07T18:39:43.763Z,1.52
2018-04-07T18:42:12.789Z,0.98
2018-04-07T18:44:41.693Z,1.87
2018-04-07T18:47:10.592Z,2.10
2018-04-07T18:49:39.488Z,1.45
2018-04-07T18:52:08.410Z,2.35
2018-04-07T18:54:37.379Z,1.58
2018-04-07T18:57:06.346Z,1.30
2018-04-07T18:59:35.249Z,1.73
2018-04-07T19:02:04.415Z,1.60
2018-04-07T19:04:33.300Z,1.55
2018-04-07T19:07:02.191Z,1.45
2018-04-07T19:09:31.094Z,1.25
2018-04-07T19:12:00.030Z,1.40
2018-04-07T19:14:29.193Z,1.20
2018-04-07T19:16:58.101Z,1.20
2018-04-07T19:19:26.995Z,1.40
2018-04-07T19:21:55.926Z,1.30
2018-04-07T19:24:24.836Z,1.90
2018-04-07T19:26:53.739Z,2.67
2018-04-07T19:29:22.629Z,2.30
2018-04-07T19:31:51.522Z,1.83
2018-04-07T19:34:20.465Z,1.85
2018-04-07T19:36:49.368Z,1.33
2018-04-07T19:39:18.259Z,1.70
2018-04-07T19:41:47.180Z,1.85
2018-04-07T19:44:16.092Z,1.58
2018-04-07T19:46:44.977Z,1.33
2018-04-07T19:49:14.137Z,3.30
2018-04-07T19:51:43.178Z,1.30
2018-04-07T19:54:12.076Z,5.53
2018-04-07T19:56:41.395Z,3.53
2018-04-07T19:59:10.293Z,1.87
2018-04-07T20:01:39.214Z,2.08
2018-04-07T20:04:08.104Z,2.47
2018-04-07T20:06:37.175Z,2.10
2018-04-07T20:09:06.090Z,2.17
2018-04-07T20:11:34.979Z,2.20
2018-04-07T20:14:03.869Z,1.50
2018-04-07T20:16:32.758Z,1.70
2018-04-07T20:19:01.996Z,1.40
2018-04-07T20:21:30.896Z,1.60
2018-04-07T20:23:59.810Z,1.98
2018-04-07T20:26:28.761Z,2.60
2018-04-07T20:28:57.673Z,1.90
2018-04-07T20:31:26.580Z,1.52
2018-04-07T20:33:55.616Z,2.20
2018-04-07T20:36:24.551Z,2.37
2018-04-07T20:38:53.718Z,1.50
2018-04-07T20:41:22.624Z,1.52
2018-04-07T20:43:51.514Z,1.70
2018-04-07T20:46:20.445Z,1.10
2018-04-07T20:48:49.349Z,3.17
2018-04-07T20:51:18.244Z,1.70
2018-04-07T20:53:47.280Z,1.52
2018-04-07T20:56:16.175Z,0.93
2018-04-07T20:58:45.144Z,1.80
2018-04-07T21:01:14.042Z,1.40
2018-04-07T21:03:42.953Z,2.22
2018-04-07T21:06:12.198Z,1.20
2018-04-07T21:08:41.120Z,1.70
2018-04-07T21:11:10.320Z,1.60
2018-04-07T21:13:39.424Z,2.55
2018-04-07T21:16:08.336Z,2.28
2018-04-07T21:18:37.268Z,1.65
2018-04-07T21:21:06.176Z,1.67
2018-04-07T21:23:35.071Z,1.45
2018-04-07T21:26:04.077Z,2.10
2018-04-07T21:28:33.005Z,1.40
2018-04-07T21:31:02.080Z,2.15
2018-04-07T21:33:30.968Z,2.40
2018-04-07T21:35:59.883Z,2.20
2018-04-07T21:38:28.768Z,1.83
2018-04-07T21:40:57.905Z,1.65
2018-04-07T21:43:26.956Z,1.62
2018-04-07T21:45:55.852Z,1.92
2018-04-07T21:48:24.761Z,2.10
2018-04-07T21:50:53.850Z,2.65
2018-04-07T21:53:22.742Z,1.67
2018-04-07T21:55:51.645Z,2.28
2018-04-07T21:58:20.546Z,1.65
2018-04-07T22:00:49.453Z,2.25
2018-04-07T22:03:18.404Z,2.17
2018-04-07T22:05:47.311Z,2.47
2018-04-07T22:08:16.216Z,1.85
2018-04-07T22:10:45.350Z,3.05
2018-04-07T22:13:14.250Z,2.85
2018-04-07T22:15:43.149Z,2.62
2018-04-07T22:18:12.426Z,2.40
2018-04-07T22:20:41.346Z,2.50
2018-04-07T22:23:11.276Z,2.60
2018-04-07T22:25:40.169Z,2.53
2018-04-07T22:28:09.075Z,2.45
2018-04-07T22:30:38.308Z,1.95
2018-04-07T22:33:07.224Z,2.40
2018-04-07T22:35:36.140Z,3.25
2018-04-07T22:38:05.181Z,2.67
2018-04-07T22:40:34.088Z,2.45
2018-04-07T22:43:03.170Z,2.83
2018-04-07T22:45:32.094Z,2.97
2018-04-07T22:48:01.253Z,2.30
2018-04-07T22:50:30.260Z,2.87
2018-04-07T22:52:59.174Z,2.47
2018-04-07T22:55:28.065Z,2.60
2018-04-07T22:57:56.953Z,2.87
2018-04-07T23:00:25.887Z,2.72
2018-04-07T23:02:54.788Z,2.78
2018-04-07T23:05:23.681Z,2.35
2018-04-07T23:07:52.656Z,2.15
2018-04-07T23:10:21.562Z,3.80
2018-04-07T23:12:50.464Z,2.50
2018-04-07T23:15:19.365Z,3.05
2018-04-07T23:17:48.261Z,2.33
2018-04-07T23:20:17.225Z,1.80
2018-04-07T23:22:46.121Z,1.98
2018-04-07T23:25:15.017Z,2.60
2018-04-07T23:27:43.935Z,2.25
2018-04-07T23:30:13.004Z,2.60
2018-04-07T23:32:41.897Z,2.10
2018-04-07T23:35:10.830Z,2.12
2018-04-07T23:37:39.738Z,2.80
2018-04-07T23:40:08.721Z,2.50
2018-04-07T23:42:37.633Z,1.92
2018-04-07T23:45:06.545Z,3.00
2018-04-07T23:47:35.452Z,2.28
2018-04-07T23:50:04.348Z,2.50
2018-04-07T23:52:33.414Z,2.40
2018-04-07T23:55:02.314Z,2.67
2018-04-07T23:57:31.235Z,2.15
